METAR Data
IDs: Format: Raw Decoded Include TAF

Data at: 2207 UTC 18 Sep 2018

KBBD 182155Z AUTO 14008KT 10SM SCT050 SCT065 SCT080 32/18 A2996 RMK AO2
KBBD 182135Z AUTO 20007KT 150V230 10SM FEW055 FEW065 FEW080 31/19 A2996 RMK AO2
KBBD 182115Z AUTO 13007G12KT 10SM FEW050 FEW060 31/18 A2997 RMK AO2
KBBD 182055Z AUTO 17009KT 140V220 10SM SCT050 BKN055 SCT065 31/19 A2998 RMK AO2
KBBD 182035Z AUTO 13008G13KT 100V170 10SM BKN050 BKN055 BKN065 32/19 A2998 RMK AO2
KBBD 182015Z AUTO 20008KT 10SM FEW050 SCT055 31/19 A2999 RMK AO2
KBBD 181955Z AUTO 20007KT 180V240 10SM SCT050 31/18 A3000 RMK AO2
KBBD 181935Z AUTO 16010KT 10SM FEW047 FEW055 31/19 A3001 RMK AO2
KBBD 181915Z AUTO VRB05G12KT 10SM SCT046 30/19 A3001 RMK AO2
KBBD 181855Z AUTO 16006G12KT 10SM CLR 30/19 A3002 RMK AO2
KBBD 181835Z AUTO 21009KT 160V230 10SM FEW044 30/19 A3003 RMK AO2
KBBD 181815Z AUTO 22008KT 10SM SCT042 29/20 A3004 RMK AO2
KBBD 181755Z AUTO 16009KT 10SM SCT039 30/20 A3005 RMK AO2
KBBD 181735Z AUTO 19008G15KT 10SM FEW039 29/20 A3006 RMK AO2
KBBD 181715Z AUTO 19009KT 10SM CLR 29/20 A3006 RMK AO2
KBBD 181655Z AUTO 20009KT 10SM CLR 29/20 A3007 RMK AO2
KBBD 181635Z AUTO 20005G11KT 10SM CLR 28/21 A3007 RMK AO2
KBBD 181615Z AUTO 18007KT 10SM CLR 27/21 A3008 RMK AO2
KBBD 181555Z AUTO 19009KT 10SM CLR 27/21 A3008 RMK AO2
KBBD 181535Z AUTO 18009KT 10SM CLR 27/21 A3008 RMK AO2
KBBD 181515Z AUTO 20008G13KT 10SM CLR 26/21 A3007 RMK AO2
KBBD 181455Z AUTO 20008KT 10SM CLR 25/21 A3008 RMK AO2
KBBD 181435Z AUTO 18008KT 10SM CLR 24/21 A3007 RMK AO2
KBBD 181415Z AUTO 19003KT 10SM CLR 22/21 A3008 RMK AO2
KBBD 181355Z AUTO 15003KT 9SM CLR 21/21 A3008 RMK AO2
KBBD 181335Z AUTO 17003KT 10SM CLR 21/20 A3008 RMK AO2
KBBD 181315Z AUTO 19004KT 10SM CLR 21/20 A3008 RMK AO2
KBBD 181255Z AUTO 17003KT 9SM CLR 21/20 A3008 RMK AO2
KBBD 181235Z AUTO 13004KT 9SM CLR 21/20 A3007 RMK AO2
KBBD 181215Z AUTO 00000KT 10SM SCT011 21/20 A3007 RMK AO2
KBBD 181155Z AUTO 19005KT 10SM BKN010 21/20 A3007 RMK AO2
KBBD 181135Z AUTO 19004KT 10SM BKN010 21/20 A3007 RMK AO2
KBBD 181115Z AUTO 15003KT 10SM FEW011 21/20 A3006 RMK AO2
KBBD 181055Z AUTO 19004KT 10SM CLR 21/20 A3005 RMK AO2
KBBD 181035Z AUTO 21005KT 10SM CLR 21/20 A3005 RMK AO2
KBBD 181015Z AUTO 21004KT 10SM FEW120 21/20 A3004 RMK AO2
KBBD 180955Z AUTO 20004KT 10SM CLR 21/20 A3004 RMK AO2
KBBD 180935Z AUTO 20005KT 10SM CLR 21/20 A3004 RMK AO2
KBBD 180915Z AUTO 18004KT 10SM CLR 21/20 A3004 RMK AO2
KBBD 180855Z AUTO 16003KT 10SM FEW110 22/20 A3003 RMK AO2
KBBD 180835Z AUTO 00000KT 10SM FEW110 22/20 A3003 RMK AO2
KBBD 180815Z AUTO 00000KT 10SM CLR 22/20 A3004 RMK AO2
KBBD 180755Z AUTO 00000KT 10SM CLR 22/20 A3004 RMK AO2
KBBD 180735Z AUTO 00000KT 10SM CLR 22/20 A3004 RMK AO2
KBBD 180715Z AUTO 20003KT 10SM CLR 22/20 A3004 RMK AO2
KBBD 180655Z AUTO 18003KT 10SM CLR 22/20 A3004 RMK AO2
KBBD 180635Z AUTO 18003KT 10SM CLR 23/20 A3004 RMK AO2
KBBD 180615Z AUTO 00000KT 10SM CLR 23/20 A3004 RMK AO2
KBBD 180555Z AUTO 16004KT 10SM CLR 23/20 A3004 RMK AO2
KBBD 180535Z AUTO 18003KT 10SM CLR 23/20 A3005 RMK AO2
KBBD 180515Z AUTO 18003KT 10SM CLR 23/20 A3005 RMK AO2
KBBD 180455Z AUTO 00000KT 10SM CLR 23/20 A3004 RMK AO2
KBBD 180435Z AUTO 17003KT 10SM CLR 23/20 A3004 RMK AO2
KBBD 180415Z AUTO 16004KT 10SM CLR 24/20 A3005 RMK AO2
KBBD 180355Z AUTO 16005KT 10SM FEW050 24/20 A3005 RMK AO2
KBBD 180335Z AUTO 17004KT 10SM FEW100 24/20 A3004 RMK AO2
KBBD 180315Z AUTO 16005KT 10SM BKN100 25/20 A3005 RMK AO2
KBBD 180255Z AUTO 16005KT 10SM OVC100 25/20 A3004 RMK AO2
KBBD 180235Z AUTO 15005KT 10SM OVC100 25/20 A3003 RMK AO2
KBBD 180215Z AUTO 16004KT 10SM BKN100 25/20 A3003 RMK AO2
KBBD 180155Z AUTO 15005KT 10SM BKN100 25/20 A3002 RMK AO2
KBBD 180135Z AUTO 14004KT 10SM OVC100 26/20 A3001 RMK AO2
KBBD 180115Z AUTO 15004KT 10SM OVC095 26/20 A3000 RMK AO2
KBBD 180055Z AUTO 16004KT 10SM OVC095 26/20 A3000 RMK AO2
KBBD 180035Z AUTO 15004KT 10SM OVC100 26/20 A3000 RMK AO2
KBBD 180015Z AUTO 15003KT 10SM BKN100 27/20 A2999 RMK AO2
KBBD 172355Z AUTO 14005KT 10SM SCT100 27/20 A2999 RMK AO2
KBBD 172335Z AUTO 15005KT 10SM FEW048 28/20 A2999 RMK AO2
KBBD 172315Z AUTO 00000KT 10SM FEW095 29/20 A2999 RMK AO2
KBBD 172255Z AUTO 17003KT 10SM BKN095 28/20 A2999 RMK AO2
KBBD 172235Z AUTO 17004KT 10SM OVC095 28/20 A2999 RMK AO2
KBBD 172215Z AUTO 16006KT 10SM FEW050 OVC090 28/20 A2999 RMK AO2
KBBD 172155Z AUTO 16005KT 10SM FEW045 SCT055 BKN080 28/19 A2999 RMK AO2
KBBD 172135Z AUTO 23004KT 10SM FEW042 SCT075 OVC095 29/20 A2999 RMK AO2
KBBD 172115Z AUTO 16006KT 10SM FEW070 OVC090 28/20 A3000 RMK AO2
KBBD 172055Z AUTO 17007KT 10SM OVC090 29/20 A3001 RMK AO2
KBBD 172035Z AUTO 15007KT 10SM FEW048 SCT060 OVC090 29/20 A3001 RMK AO2
KBBD 172015Z AUTO 17007KT 10SM FEW042 SCT050 BKN060 28/19 A3002 RMK AO2
KBBD 171955Z AUTO 19007KT 160V220 10SM SCT042 SCT050 BKN085 29/20 A3002 RMK AO2
KBBD 171935Z AUTO 15007KT 10SM SCT040 BKN050 BKN085 29/20 A3003 RMK AO2
KBBD 171915Z AUTO 14005G10KT 10SM SCT038 BKN045 BKN070 28/20 A3004 RMK AO2
KBBD 171855Z AUTO 21007KT 10SM FEW034 SCT040 BKN047 28/20 A3005 RMK AO2
KBBD 171835Z AUTO 18008KT 10SM SCT035 BKN041 BKN049 28/20 A3005 RMK AO2
KBBD 171815Z AUTO VRB04G10KT 10SM BKN033 BKN043 28/20 A3006 RMK AO2
KBBD 171755Z AUTO 18007KT 10SM SCT031 28/21 A3006 RMK AO2
KBBD 171735Z AUTO 21007G14KT 10SM SCT030 27/20 A3007 RMK AO2
KBBD 171715Z AUTO VRB06KT 10SM SCT025 27/20 A3008 RMK AO2
KBBD 171655Z AUTO 21008KT 10SM BKN024 27/21 A3008 RMK AO2
KBBD 171635Z AUTO 22008KT 10SM SCT020 27/21 A3008 RMK AO2
KBBD 171615Z AUTO 19007KT 150V220 10SM FEW017 26/21 A3008 RMK AO2
KBBD 171555Z AUTO 22008KT 10SM CLR 25/21 A3008 RMK AO2
KBBD 171535Z AUTO 20009KT 10SM CLR 24/20 A3008 RMK AO2
KBBD 171515Z AUTO 21008KT 10SM FEW009 23/21 A3008 RMK AO2
KBBD 171455Z AUTO 22007KT 10SM BKN009 22/21 A3007 RMK AO2
KBBD 171435Z AUTO 21010KT 10SM BKN009 22/21 A3007 RMK AO2
KBBD 171415Z AUTO 21006KT 10SM CLR 21/20 A3007 RMK AO2
KBBD 171355Z AUTO 21005KT 10SM BKN005 20/20 A3007 RMK AO2
KBBD 171335Z AUTO 20004KT 9SM OVC005 20/20 A3006 RMK AO2
KBBD 171315Z AUTO 19007G13KT 10SM OVC005 20/20 A3006 RMK AO2
KBBD 171255Z AUTO 19005KT 6SM BR SCT002 OVC007 20/20 A3005 RMK AO2
KBBD 171235Z AUTO 20004KT M1/4SM FG OVC002 20/20 A3005 RMK AO2
KBBD 171215Z AUTO 16004KT 1/4SM FG OVC002 20/20 A3004 RMK AO2
KBBD 171155Z AUTO 16005KT M1/4SM FG OVC002 20/20 A3004 RMK AO2
KBBD 171135Z AUTO 15004KT 1/4SM FG OVC002 20/20 A3003 RMK AO2
KBBD 171115Z AUTO 15003KT M1/4SM FG OVC002 20/20 A3003 RMK AO2
KBBD 171055Z AUTO 00000KT M1/4SM FG OVC002 20/20 A3002 RMK AO2
KBBD 171035Z AUTO 00000KT M1/4SM FG OVC002 20/20 A3002 RMK AO2
KBBD 171015Z AUTO 00000KT M1/4SM FG OVC002 20/20 A3002 RMK AO2